createdAt,value
2019-01-25T00:00:22.773Z,92.88
2019-01-25T00:02:50.014Z,92.65
2019-01-25T00:05:17.268Z,94.52
2019-01-25T00:07:44.498Z,91.53
2019-01-25T00:10:11.861Z,95.00
2019-01-25T00:12:39.078Z,89.32
2019-01-25T00:15:06.938Z,91.92
2019-01-25T00:17:34.274Z,91.10
2019-01-25T00:20:01.536Z,92.27
2019-01-25T00:22:28.855Z,99.45
2019-01-25T00:24:56.122Z,98.70
2019-01-25T00:27:23.472Z,89.32
2019-01-25T00:29:50.715Z,88.85
2019-01-25T00:32:17.967Z,84.22
2019-01-25T00:34:45.198Z,83.15
2019-01-25T00:37:12.457Z,83.78
2019-01-25T00:39:39.689Z,93.82
2019-01-25T00:42:07.095Z,90.25
2019-01-25T00:44:34.353Z,85.62
2019-01-25T00:47:01.599Z,83.47
2019-01-25T00:49:29.441Z,85.12
2019-01-25T00:51:56.789Z,96.80
2019-01-25T00:54:24.034Z,94.55
2019-01-25T00:56:51.254Z,84.25
2019-01-25T00:59:18.525Z,86.87
2019-01-25T01:01:45.861Z,88.70
2019-01-25T01:04:13.118Z,83.50
2019-01-25T01:06:40.366Z,93.70
2019-01-25T01:09:09.022Z,91.12
2019-01-25T01:11:36.237Z,75.08
2019-01-25T01:14:03.785Z,78.87
2019-01-25T01:16:31.025Z,78.00
2019-01-25T01:18:58.285Z,83.72
2019-01-25T01:21:25.559Z,77.45
2019-01-25T01:23:52.814Z,78.35
2019-01-25T01:26:20.036Z,71.30
2019-01-25T01:28:47.285Z,78.62
2019-01-25T01:31:14.526Z,68.60
2019-01-25T01:33:41.793Z,78.30
2019-01-25T01:36:09.071Z,74.07
2019-01-25T01:38:36.322Z,70.08
2019-01-25T01:41:03.746Z,69.97
2019-01-25T01:43:30.992Z,81.08
2019-01-25T01:45:58.326Z,74.22
2019-01-25T01:48:25.685Z,72.03
2019-01-25T01:50:53.857Z,73.33
2019-01-25T01:53:21.110Z,75.15
2019-01-25T01:55:48.346Z,76.57
2019-01-25T01:58:15.593Z,77.85
2019-01-25T02:00:42.837Z,74.70
2019-01-25T02:03:10.077Z,63.60
2019-01-25T02:05:37.337Z,71.02
2019-01-25T02:08:04.682Z,78.95
2019-01-25T02:10:31.894Z,71.10
2019-01-25T02:12:59.137Z,78.28
2019-01-25T02:15:26.374Z,80.85
2019-01-25T02:17:53.956Z,70.12
2019-01-25T02:20:23.734Z,80.05
2019-01-25T02:22:51.098Z,68.02
2019-01-25T02:25:18.418Z,80.92
2019-01-25T02:27:45.654Z,78.33
2019-01-25T02:30:15.715Z,78.40
2019-01-25T02:32:42.940Z,84.70
2019-01-25T02:35:10.262Z,86.53
2019-01-25T02:37:37.501Z,90.22
2019-01-25T02:40:05.546Z,90.92
2019-01-25T02:42:33.292Z,97.30
2019-01-25T02:45:00.869Z,89.72
2019-01-25T02:47:28.349Z,81.00
2019-01-25T02:49:55.566Z,99.13
2019-01-25T02:52:23.847Z,93.55
2019-01-25T02:54:51.104Z,86.72
2019-01-25T02:57:18.393Z,90.07
2019-01-25T02:59:45.734Z,87.20
2019-01-25T03:02:12.998Z,87.17
2019-01-25T03:04:40.263Z,85.72
2019-01-25T03:07:07.513Z,97.97
2019-01-25T03:09:34.855Z,91.12
2019-01-25T03:12:02.110Z,100.78
2019-01-25T03:14:29.366Z,98.60
2019-01-25T03:16:56.622Z,107.05
2019-01-25T03:19:23.871Z,100.40
2019-01-25T03:21:51.113Z,100.82
2019-01-25T03:24:18.358Z,104.43
2019-01-25T03:26:45.606Z,111.17
2019-01-25T03:29:12.846Z,107.32
2019-01-25T03:31:40.209Z,99.77
2019-01-25T03:34:07.560Z,97.97
2019-01-25T03:36:34.807Z,94.13
2019-01-25T03:39:04.247Z,100.72
2019-01-25T03:41:31.485Z,109.80
2019-01-25T03:43:58.726Z,100.20
2019-01-25T03:46:26.081Z,94.60
2019-01-25T03:48:53.434Z,112.60
2019-01-25T03:51:20.795Z,103.70
2019-01-25T03:53:48.306Z,99.47
2019-01-25T03:56:15.534Z,90.75
2019-01-25T03:58:42.782Z,89.35
2019-01-25T04:01:10.005Z,101.30
2019-01-25T04:03:37.250Z,92.20
2019-01-25T04:06:04.697Z,97.75
2019-01-25T04:08:31.965Z,108.30
2019-01-25T04:11:03.979Z,120.00
2019-01-25T04:13:28.374Z,94.42
2019-01-25T04:15:55.593Z,94.42
2019-01-25T04:18:22.842Z,103.53
2019-01-25T04:20:50.471Z,97.70
2019-01-25T04:23:17.738Z,109.70
2019-01-25T04:25:44.998Z,94.97
2019-01-25T04:28:12.250Z,108.20
2019-01-25T04:30:39.486Z,97.22
2019-01-25T04:33:06.730Z,94.67
2019-01-25T04:35:35.457Z,96.87
2019-01-25T04:38:03.026Z,91.08
2019-01-25T04:40:30.392Z,97.25
2019-01-25T04:42:57.646Z,89.28
2019-01-25T04:45:24.867Z,95.17
2019-01-25T04:47:52.221Z,98.00
2019-01-25T04:50:21.176Z,90.95
2019-01-25T04:52:48.930Z,85.10
2019-01-25T04:55:26.808Z,92.53
2019-01-25T04:57:55.875Z,98.80
2019-01-25T05:00:23.234Z,96.40
2019-01-25T05:02:57.537Z,104.58
2019-01-25T05:05:25.650Z,92.88
2019-01-25T05:08:02.404Z,101.78
2019-01-25T05:10:29.626Z,95.25
2019-01-25T05:12:56.878Z,92.50
2019-01-25T05:15:24.121Z,95.72
2019-01-25T05:17:52.666Z,84.83
2019-01-25T05:20:19.916Z,99.55
2019-01-25T05:22:52.059Z,94.97
2019-01-25T05:25:21.878Z,96.67
2019-01-25T05:27:49.617Z,97.92
2019-01-25T05:30:16.866Z,94.25
2019-01-25T05:32:44.223Z,96.75
2019-01-25T05:35:11.581Z,83.00
2019-01-25T05:37:38.852Z,91.15
2019-01-25T05:40:07.046Z,83.25
2019-01-25T05:42:34.294Z,92.20
2019-01-25T05:45:08.185Z,92.05
2019-01-25T05:47:35.410Z,100.38
2019-01-25T05:50:03.386Z,101.02
2019-01-25T05:52:30.738Z,85.62
2019-01-25T05:54:58.088Z,90.35
2019-01-25T05:57:26.313Z,84.25
2019-01-25T05:59:53.562Z,94.03
2019-01-25T06:02:20.791Z,76.95
2019-01-25T06:04:48.047Z,92.10
2019-01-25T06:07:15.481Z,79.95
2019-01-25T06:09:42.703Z,85.60
2019-01-25T06:12:10.052Z,83.55
2019-01-25T06:14:37.314Z,92.05
2019-01-25T06:17:04.641Z,86.67
2019-01-25T06:19:38.130Z,78.97
2019-01-25T06:22:05.365Z,80.83
2019-01-25T06:24:32.626Z,81.75
2019-01-25T06:26:59.878Z,79.90
2019-01-25T06:29:31.041Z,78.50
2019-01-25T06:31:58.422Z,66.72
2019-01-25T06:34:25.945Z,79.37
2019-01-25T06:36:53.291Z,83.75
2019-01-25T06:39:20.545Z,83.22
2019-01-25T06:41:47.800Z,77.78
2019-01-25T06:44:15.129Z,85.12
2019-01-25T06:46:42.374Z,76.70
2019-01-25T06:49:09.609Z,65.17
2019-01-25T06:51:36.833Z,74.05
2019-01-25T06:54:04.081Z,71.90
2019-01-25T06:56:31.305Z,67.05
2019-01-25T06:59:06.097Z,70.47
2019-01-25T07:01:51.317Z,67.50
2019-01-25T07:04:18.949Z,65.62
2019-01-25T08:18:41.629Z,62.78
2019-01-25T08:21:09.035Z,65.15
2019-01-25T08:23:36.316Z,64.62
2019-01-25T08:26:03.764Z,60.95
2019-01-25T08:28:31.062Z,78.95
2019-01-25T08:30:58.314Z,71.10
2019-01-25T08:33:25.658Z,63.20
2019-01-25T08:35:53.038Z,57.83
2019-01-25T08:38:20.527Z,53.23
2019-01-25T08:40:48.105Z,68.45
2019-01-25T08:43:15.536Z,63.30
2019-01-25T08:45:42.915Z,58.80
2019-01-25T08:48:10.344Z,55.65
2019-01-25T08:50:37.937Z,59.58
2019-01-25T08:53:05.306Z,58.08
2019-01-25T08:55:32.661Z,64.80
2019-01-25T08:58:00.006Z,61.80
2019-01-25T09:00:27.336Z,61.67
2019-01-25T09:02:54.570Z,71.17
2019-01-25T09:05:21.826Z,59.42
2019-01-25T09:07:49.089Z,54.13
2019-01-25T09:10:17.557Z,57.15
2019-01-25T09:12:44.867Z,57.17
2019-01-25T09:15:17.735Z,50.50
2019-01-25T09:17:45.209Z,57.20
2019-01-25T09:20:15.421Z,67.12
2019-01-25T09:22:42.777Z,62.75
2019-01-25T09:25:10.126Z,58.38
2019-01-25T09:27:37.553Z,60.53
2019-01-25T09:30:07.518Z,57.30
2019-01-25T09:32:34.791Z,53.80
2019-01-25T09:35:02.128Z,53.83
2019-01-25T09:37:29.462Z,53.37
2019-01-25T09:39:56.710Z,54.50
2019-01-25T09:42:30.810Z,47.20
2019-01-25T09:44:53.199Z,51.70
2019-01-25T09:47:20.536Z,46.60
2019-01-25T09:49:47.853Z,49.30
2019-01-25T09:52:15.100Z,55.03
2019-01-25T09:54:42.446Z,46.40
2019-01-25T09:57:09.704Z,45.83
2019-01-25T09:59:37.018Z,55.93
2019-01-25T10:02:04.257Z,49.50
2019-01-25T10:04:31.465Z,53.93
2019-01-25T10:06:58.703Z,51.23
2019-01-25T10:09:25.950Z,52.47
2019-01-25T10:11:53.178Z,51.57
2019-01-25T10:14:20.510Z,50.30
2019-01-25T10:16:47.741Z,55.23
2019-01-25T10:19:15.078Z,47.30
2019-01-25T10:21:42.325Z,51.90
2019-01-25T10:24:09.570Z,50.13
2019-01-25T10:26:36.804Z,46.27
2019-01-25T10:29:04.029Z,44.27
2019-01-25T10:31:31.252Z,45.50
2019-01-25T10:33:58.573Z,57.07
2019-01-25T10:36:25.827Z,53.37
2019-01-25T10:38:53.062Z,53.33
2019-01-25T10:41:20.424Z,60.53
2019-01-25T10:43:47.661Z,55.50
2019-01-25T10:46:14.912Z,56.00
2019-01-25T10:48:42.142Z,53.60
2019-01-25T10:51:09.490Z,50.27
2019-01-25T10:53:36.731Z,56.90
2019-01-25T10:56:04.142Z,48.58
2019-01-25T10:58:31.393Z,40.97
2019-01-25T11:00:58.646Z,47.27
2019-01-25T11:03:25.862Z,59.00
2019-01-25T11:05:53.494Z,53.23
2019-01-25T11:08:20.717Z,47.80
2019-01-25T11:10:47.962Z,52.00
2019-01-25T11:13:15.214Z,44.37
2019-01-25T11:15:42.462Z,49.20
2019-01-25T11:18:09.686Z,52.87
2019-01-25T11:20:36.933Z,50.87
2019-01-25T11:23:04.313Z,56.77
2019-01-25T11:25:34.190Z,56.77
2019-01-25T11:28:01.766Z,54.83
2019-01-25T11:30:29.316Z,50.53
2019-01-25T11:32:56.533Z,58.90
2019-01-25T11:35:23.765Z,59.20
2019-01-25T11:37:52.193Z,58.47
2019-01-25T11:40:31.122Z,69.90
2019-01-25T11:42:58.375Z,57.88
2019-01-25T11:45:25.725Z,57.53
2019-01-25T11:47:52.954Z,52.50
2019-01-25T11:50:20.389Z,60.10
2019-01-25T11:52:47.676Z,67.53
2019-01-25T11:55:15.665Z,64.20
2019-01-25T11:57:42.898Z,61.10
2019-01-25T12:00:16.705Z,68.23
2019-01-25T12:02:43.949Z,65.47
2019-01-25T12:05:12.654Z,63.87
2019-01-25T12:07:39.886Z,74.23
2019-01-25T12:10:09.003Z,76.03
2019-01-25T12:12:36.250Z,76.97
2019-01-25T12:15:05.762Z,81.20
2019-01-25T12:17:46.115Z,81.30
2019-01-25T12:20:16.434Z,87.33
2019-01-25T12:22:43.661Z,74.17
2019-01-25T12:25:11.230Z,78.37
2019-01-25T12:27:38.478Z,78.50
2019-01-25T12:30:11.158Z,82.47
2019-01-25T12:32:38.608Z,75.20
2019-01-25T12:35:07.621Z,70.73
2019-01-25T12:37:34.846Z,70.63
2019-01-25T12:40:02.228Z,89.27
2019-01-25T12:42:29.441Z,75.43
2019-01-25T12:44:56.765Z,80.07
2019-01-25T12:47:23.997Z,74.37
2019-01-25T12:49:51.206Z,78.67
2019-01-25T12:52:18.571Z,70.67
2019-01-25T12:54:45.790Z,76.10
2019-01-25T12:57:13.238Z,74.87
2019-01-25T12:59:40.458Z,71.50
2019-01-25T13:02:07.678Z,76.10
2019-01-25T13:04:35.002Z,71.43
2019-01-25T13:07:02.321Z,76.37
2019-01-25T13:09:29.661Z,76.00
2019-01-25T13:11:56.882Z,65.03
2019-01-25T13:14:24.315Z,70.93
2019-01-25T13:16:51.550Z,74.37
2019-01-25T13:19:18.771Z,67.43
2019-01-25T13:21:46.094Z,68.17
2019-01-25T13:24:13.326Z,61.00
2019-01-25T13:26:40.547Z,72.80
2019-01-25T13:29:07.786Z,90.10
2019-01-25T13:31:35.127Z,65.80
2019-01-25T13:34:02.429Z,62.17
2019-01-25T13:36:29.781Z,57.40
2019-01-25T13:38:57.105Z,64.80
2019-01-25T13:41:27.351Z,63.43
2019-01-25T13:43:53.721Z,61.23
2019-01-25T13:46:21.077Z,58.80
2019-01-25T13:48:48.298Z,60.80
2019-01-25T13:51:15.557Z,60.83
2019-01-25T13:53:42.797Z,62.50
2019-01-25T13:56:10.200Z,64.13
2019-01-25T13:58:37.450Z,60.33
2019-01-25T14:01:04.789Z,60.37
2019-01-25T14:03:31.998Z,66.13
2019-01-25T14:05:59.233Z,61.17
2019-01-25T14:08:26.585Z,56.20
2019-01-25T14:10:53.942Z,61.30
2019-01-25T14:13:21.213Z,56.40
2019-01-25T14:15:48.554Z,55.40
2019-01-25T14:18:15.758Z,57.70
2019-01-25T14:20:42.999Z,63.93
2019-01-25T14:23:10.244Z,60.43
2019-01-25T14:25:37.610Z,61.07
2019-01-25T14:28:04.854Z,58.20
2019-01-25T14:30:37.054Z,65.83
2019-01-25T14:33:04.960Z,61.60
2019-01-25T14:35:32.749Z,64.57
2019-01-25T14:37:59.988Z,60.60
2019-01-25T14:40:27.321Z,66.03
2019-01-25T14:42:54.677Z,67.07
2019-01-25T14:45:21.930Z,56.07
2019-01-25T14:47:49.151Z,59.20
2019-01-25T14:50:17.951Z,63.97
2019-01-25T14:52:45.378Z,65.77
2019-01-25T14:55:12.713Z,62.73
2019-01-25T14:57:40.246Z,67.37
2019-01-25T15:00:07.902Z,69.10
2019-01-25T15:02:35.223Z,66.07
2019-01-25T15:05:03.493Z,70.13
2019-01-25T15:07:30.742Z,64.43
2019-01-25T15:09:57.973Z,72.40
2019-01-25T15:12:25.469Z,71.63
2019-01-25T15:14:52.721Z,64.27
2019-01-25T15:17:19.951Z,65.30
2019-01-25T15:19:47.183Z,61.30
2019-01-25T15:22:14.428Z,63.67
2019-01-25T15:24:41.646Z,59.93
2019-01-25T15:27:08.880Z,63.63
2019-01-25T15:29:36.146Z,70.93
2019-01-25T15:32:03.706Z,61.80
2019-01-25T15:34:30.971Z,62.80
2019-01-25T15:36:58.214Z,65.90
2019-01-25T15:39:25.526Z,64.23
2019-01-25T15:41:52.766Z,63.13
2019-01-25T15:44:20.008Z,73.40
2019-01-25T15:46:47.353Z,66.37
2019-01-25T15:49:14.601Z,70.23
2019-01-25T15:51:41.842Z,70.70
2019-01-25T15:54:09.061Z,69.13
2019-01-25T15:56:36.326Z,81.47
2019-01-25T15:59:03.758Z,71.30
2019-01-25T16:01:31.017Z,76.10
2019-01-25T16:03:58.283Z,86.87
2019-01-25T16:06:25.643Z,82.73
2019-01-25T16:08:52.859Z,76.75
2019-01-25T16:11:20.118Z,81.37
2019-01-25T16:13:47.365Z,78.42
2019-01-25T16:16:14.626Z,71.23
2019-01-25T16:18:41.905Z,76.33
2019-01-25T16:21:09.266Z,81.25
2019-01-25T16:23:36.657Z,85.70
2019-01-25T16:26:04.006Z,74.67
2019-01-25T16:28:31.247Z,74.53
2019-01-25T16:30:58.547Z,74.10
2019-01-25T16:33:25.810Z,73.75
2019-01-25T16:35:53.062Z,75.72
2019-01-25T16:38:20.321Z,82.85
2019-01-25T16:40:48.762Z,73.90
2019-01-25T16:43:16.102Z,68.78
2019-01-25T16:45:43.866Z,67.43
2019-01-25T16:48:11.342Z,74.62
2019-01-25T16:50:39.791Z,82.60
2019-01-25T16:53:09.533Z,70.92
2019-01-25T16:55:36.882Z,71.50
2019-01-25T16:58:04.950Z,76.65
2019-01-25T17:00:34.764Z,69.60
2019-01-25T17:03:01.996Z,71.62
2019-01-25T17:05:31.745Z,67.12
2019-01-25T17:07:58.996Z,62.03
2019-01-25T17:10:26.566Z,71.62
2019-01-25T17:12:53.926Z,66.57
2019-01-25T17:15:21.154Z,68.00
2019-01-25T17:17:48.503Z,68.33
2019-01-25T17:20:20.100Z,58.50
2019-01-25T17:22:46.395Z,62.27
2019-01-25T17:25:13.824Z,61.20
2019-01-25T17:27:41.497Z,55.08
2019-01-25T17:30:15.922Z,55.70
2019-01-25T17:32:44.090Z,53.95
2019-01-25T17:35:11.661Z,54.40
2019-01-25T17:37:38.918Z,59.67
2019-01-25T17:40:09.551Z,49.27
2019-01-25T17:42:36.794Z,54.38
2019-01-25T17:45:05.179Z,55.90
2019-01-25T17:47:32.586Z,49.43
2019-01-25T17:49:59.838Z,50.08
2019-01-25T17:52:27.070Z,46.90
2019-01-25T17:54:54.402Z,56.13
2019-01-25T17:57:21.641Z,50.50
2019-01-25T17:59:49.017Z,45.43
2019-01-25T18:02:16.271Z,52.95
2019-01-25T18:04:43.522Z,52.15
2019-01-25T18:07:10.753Z,47.60
2019-01-25T18:09:38.037Z,51.08
2019-01-25T18:12:05.415Z,45.35
2019-01-25T18:14:32.673Z,47.43
2019-01-25T18:16:59.926Z,47.95
2019-01-25T18:19:27.178Z,51.00
2019-01-25T18:21:54.517Z,48.87
2019-01-25T18:24:21.874Z,47.60
2019-01-25T18:26:49.149Z,50.60
2019-01-25T18:29:33.542Z,54.53
2019-01-25T18:32:00.771Z,48.98
2019-01-25T18:34:28.258Z,47.40
2019-01-25T18:36:55.510Z,47.62
2019-01-25T18:39:22.739Z,47.43
2019-01-25T18:41:49.988Z,49.77
2019-01-25T18:44:17.239Z,48.83
2019-01-25T18:46:44.490Z,49.53
2019-01-25T18:49:11.750Z,50.00
2019-01-25T18:51:39.079Z,54.95
2019-01-25T18:54:06.446Z,52.13
2019-01-25T18:56:34.110Z,52.50
2019-01-25T18:59:01.466Z,46.48
2019-01-25T19:01:28.697Z,49.55
2019-01-25T19:03:55.942Z,47.98
2019-01-25T19:06:23.166Z,44.93
2019-01-25T19:08:50.413Z,50.17
2019-01-25T19:11:17.665Z,56.65
2019-01-25T19:13:45.018Z,51.10
2019-01-25T19:16:12.231Z,50.95
2019-01-25T19:18:39.486Z,47.98
2019-01-25T19:21:06.713Z,55.95
2019-01-25T19:23:33.954Z,63.45
2019-01-25T19:26:01.203Z,48.33
2019-01-25T19:28:28.558Z,71.37
2019-01-25T19:30:56.142Z,66.42
2019-01-25T19:33:23.383Z,77.35
2019-01-25T19:35:51.557Z,63.17
2019-01-25T19:38:20.671Z,65.90
2019-01-25T19:40:48.023Z,64.95
2019-01-25T19:43:15.309Z,64.77
2019-01-25T19:45:42.525Z,62.27
2019-01-25T19:48:09.861Z,76.30
2019-01-25T19:50:37.091Z,85.53
2019-01-25T19:53:04.798Z,68.35
2019-01-25T19:55:32.661Z,61.60
2019-01-25T19:57:59.928Z,71.25
2019-01-25T20:00:29.811Z,58.23
2019-01-25T20:02:57.040Z,60.23
2019-01-25T20:05:25.555Z,64.37
2019-01-25T20:07:52.902Z,96.95
2019-01-25T20:10:20.229Z,68.80
2019-01-25T20:12:47.610Z,64.50
2019-01-25T20:15:19.461Z,63.28
2019-01-25T20:17:44.922Z,66.33
2019-01-25T20:20:14.902Z,66.25
2019-01-25T20:22:42.157Z,72.67
2019-01-25T20:25:09.597Z,125.55
2019-01-25T20:27:36.845Z,70.30
2019-01-25T20:30:07.881Z,61.30
2019-01-25T20:32:35.126Z,69.80
2019-01-25T20:35:03.373Z,56.75
2019-01-25T20:37:30.605Z,61.63
2019-01-25T20:39:57.841Z,61.95
2019-01-25T20:42:25.203Z,56.90
2019-01-25T20:44:52.627Z,55.83
2019-01-25T20:47:19.860Z,58.20
2019-01-25T20:49:47.098Z,51.73
2019-01-25T20:52:14.321Z,58.38
2019-01-25T20:54:41.571Z,60.75
2019-01-25T20:57:08.802Z,54.53
2019-01-25T20:59:36.039Z,56.90
2019-01-25T21:02:03.866Z,69.42
2019-01-25T21:04:31.117Z,58.78
2019-01-25T21:06:58.345Z,67.45
2019-01-25T21:09:25.600Z,61.63
2019-01-25T21:11:52.922Z,56.08
2019-01-25T21:14:20.255Z,61.90
2019-01-25T21:16:47.597Z,51.70
2019-01-25T21:19:14.838Z,58.87
2019-01-25T21:21:42.050Z,56.65
2019-01-25T21:24:10.139Z,60.00
2019-01-25T21:26:37.548Z,53.90
2019-01-25T21:29:04.766Z,56.77
2019-01-25T21:31:32.013Z,55.88
2019-01-25T21:33:59.371Z,65.32
2019-01-25T21:36:26.693Z,63.05
2019-01-25T21:38:54.037Z,58.08
2019-01-25T21:41:21.282Z,56.45
2019-01-25T21:43:48.517Z,66.50
2019-01-25T21:46:15.740Z,62.98
2019-01-25T21:48:42.962Z,62.00
2019-01-25T21:51:10.185Z,67.20
2019-01-25T21:53:37.528Z,56.37
2019-01-25T21:56:04.960Z,54.63
2019-01-25T21:58:32.306Z,68.42
2019-01-25T22:00:59.666Z,66.77
2019-01-25T22:03:26.894Z,56.18
2019-01-25T22:05:54.129Z,56.83
2019-01-25T22:08:21.374Z,54.67
2019-01-25T22:11:08.107Z,61.05
2019-01-25T22:13:35.448Z,54.83
2019-01-25T22:16:02.949Z,59.00
2019-01-25T22:18:30.371Z,54.25
2019-01-25T22:20:57.693Z,54.85
2019-01-25T22:23:25.061Z,58.48
2019-01-25T22:25:52.301Z,56.00
2019-01-25T22:28:19.653Z,49.85
2019-01-25T22:30:46.901Z,54.15
2019-01-25T22:33:14.138Z,63.30
2019-01-25T22:35:41.353Z,47.73
2019-01-25T22:38:09.473Z,57.70
2019-01-25T22:40:36.806Z,55.17
2019-01-25T22:43:05.428Z,59.05
2019-01-25T22:45:32.906Z,56.18
2019-01-25T22:48:01.441Z,51.45
2019-01-25T22:50:30.843Z,50.08
2019-01-25T22:52:58.082Z,53.80
2019-01-25T22:55:26.171Z,54.13
2019-01-25T22:57:53.401Z,45.35
2019-01-25T23:01:19.118Z,50.10
2019-01-25T23:04:14.549Z,51.35
2019-01-25T23:07:11.926Z,50.00
2019-01-25T23:09:51.140Z,51.28
2019-01-25T23:12:18.393Z,42.55
2019-01-25T23:14:45.611Z,47.55
2019-01-25T23:17:12.838Z,48.38
2019-01-25T23:19:40.067Z,55.52
2019-01-25T23:22:07.313Z,53.70
2019-01-25T23:24:34.561Z,46.37
2019-01-25T23:27:01.806Z,47.65
2019-01-25T23:29:29.025Z,52.65
2019-01-25T23:31:56.378Z,45.70
2019-01-25T23:34:23.629Z,46.85
2019-01-25T23:36:50.969Z,51.48
2019-01-25T23:39:19.178Z,48.92
2019-01-25T23:41:46.426Z,45.83
2019-01-25T23:44:13.653Z,43.38
2019-01-25T23:46:40.873Z,46.60
2019-01-25T23:49:08.119Z,46.08
2019-01-25T23:51:35.338Z,51.18
2019-01-25T23:54:02.677Z,49.38
2019-01-25T23:56:30.022Z,48.70
2019-01-25T23:58:57.245Z,53.73
